sensor_id;sensor_type;location;lat;lon;timestamp;P1;durP1;ratioP1;P2;durP2;ratioP2
29430;SDS011;16404;49.902;10.074;2023-04-25T13:28:11;6.75;;;3.50;;
29430;SDS011;16404;49.902;10.074;2023-04-25T13:30:55;8.77;;;4.10;;
29430;SDS011;16404;49.902;10.074;2023-04-25T13:33:40;6.43;;;4.30;;
29430;SDS011;16404;49.902;10.074;2023-04-25T13:36:24;8.05;;;4.15;;
29430;SDS011;16404;49.902;10.074;2023-04-25T13:39:09;8.38;;;4.07;;
29430;SDS011;16404;49.902;10.074;2023-04-25T13:41:54;4.82;;;3.28;;
29430;SDS011;16404;49.902;10.074;2023-04-25T13:44:39;6.75;;;3.65;;
29430;SDS011;16404;49.902;10.074;2023-04-25T13:47:25;9.55;;;3.33;;
29430;SDS011;16404;49.902;10.074;2023-04-25T13:50:10;7.75;;;3.28;;
29430;SDS011;16404;49.902;10.074;2023-04-25T13:52:54;8.10;;;2.53;;
29430;SDS011;16404;49.902;10.074;2023-04-25T13:55:39;5.30;;;2.03;;
29430;SDS011;16404;49.902;10.074;2023-04-25T13:58:23;5.20;;;2.25;;
29430;SDS011;16404;49.902;10.074;2023-04-25T14:01:08;3.50;;;2.13;;
29430;SDS011;16404;49.902;10.074;2023-04-25T14:03:53;6.70;;;2.22;;
29430;SDS011;16404;49.902;10.074;2023-04-25T14:06:38;3.45;;;2.15;;
29430;SDS011;16404;49.902;10.074;2023-04-25T14:09:22;3.85;;;2.00;;
29430;SDS011;16404;49.902;10.074;2023-04-25T14:12:09;5.90;;;1.90;;
29430;SDS011;16404;49.902;10.074;2023-04-25T14:14:53;5.30;;;2.30;;
29430;SDS011;16404;49.902;10.074;2023-04-25T14:17:38;5.32;;;2.25;;
29430;SDS011;16404;49.902;10.074;2023-04-25T14:20:23;4.60;;;2.40;;
29430;SDS011;16404;49.902;10.074;2023-04-25T14:23:08;10.00;;;2.30;;
29430;SDS011;16404;49.902;10.074;2023-04-25T14:25:52;6.85;;;3.33;;
29430;SDS011;16404;49.902;10.074;2023-04-25T14:28:37;8.80;;;3.07;;
29430;SDS011;16404;49.902;10.074;2023-04-25T14:31:21;11.48;;;4.50;;
29430;SDS011;16404;49.902;10.074;2023-04-25T14:34:06;9.20;;;2.72;;
29430;SDS011;16404;49.902;10.074;2023-04-25T14:36:51;7.78;;;2.90;;
29430;SDS011;16404;49.902;10.074;2023-04-25T14:39:36;6.03;;;2.80;;
29430;SDS011;16404;49.902;10.074;2023-04-25T14:42:21;6.85;;;3.47;;
29430;SDS011;16404;49.902;10.074;2023-04-25T14:45:05;5.93;;;2.97;;
29430;SDS011;16404;49.902;10.074;2023-04-25T14:47:51;5.85;;;2.53;;
29430;SDS011;16404;49.902;10.074;2023-04-25T14:50:35;4.47;;;2.10;;
29430;SDS011;16404;49.902;10.074;2023-04-25T14:53:20;4.97;;;2.40;;
29430;SDS011;16404;49.902;10.074;2023-04-25T14:56:05;5.30;;;2.10;;
29430;SDS011;16404;49.902;10.074;2023-04-25T14:58:50;4.97;;;2.03;;
29430;SDS011;16404;49.902;10.074;2023-04-25T15:01:35;7.30;;;2.22;;
29430;SDS011;16404;49.902;10.074;2023-04-25T15:04:19;4.05;;;1.67;;
29430;SDS011;16404;49.902;10.074;2023-04-25T15:07:05;3.55;;;2.25;;
29430;SDS011;16404;49.902;10.074;2023-04-25T15:09:49;4.95;;;2.00;;
29430;SDS011;16404;49.902;10.074;2023-04-25T15:12:34;5.45;;;2.15;;
29430;SDS011;16404;49.902;10.074;2023-04-25T15:15:18;5.82;;;2.65;;
29430;SDS011;16404;49.902;10.074;2023-04-25T15:18:03;9.02;;;2.22;;
29430;SDS011;16404;49.902;10.074;2023-04-25T15:20:48;7.03;;;2.50;;
29430;SDS011;16404;49.902;10.074;2023-04-25T15:23:32;6.90;;;2.53;;
29430;SDS011;16404;49.902;10.074;2023-04-25T15:26:17;5.82;;;2.13;;
29430;SDS011;16404;49.902;10.074;2023-04-25T15:29:02;3.33;;;2.00;;
29430;SDS011;16404;49.902;10.074;2023-04-25T15:34:31;4.65;;;1.85;;
29430;SDS011;16404;49.902;10.074;2023-04-25T15:37:16;6.15;;;2.65;;
29430;SDS011;16404;49.902;10.074;2023-04-25T15:40:03;6.30;;;2.85;;
29430;SDS011;16404;49.902;10.074;2023-04-25T15:42:52;9.48;;;2.83;;
29430;SDS011;16404;49.902;10.074;2023-04-25T15:45:37;7.47;;;2.22;;
29430;SDS011;16404;49.902;10.074;2023-04-25T15:48:22;12.50;;;3.30;;
29430;SDS011;16404;49.902;10.074;2023-04-25T15:51:06;4.35;;;2.15;;
29430;SDS011;16404;49.902;10.074;2023-04-25T15:53:51;7.10;;;3.20;;
29430;SDS011;16404;49.902;10.074;2023-04-25T15:56:35;6.35;;;2.72;;
29430;SDS011;16404;49.902;10.074;2023-04-25T15:59:20;9.07;;;2.78;;
29430;SDS011;16404;49.902;10.074;2023-04-25T16:02:05;4.55;;;2.50;;
29430;SDS011;16404;49.902;10.074;2023-04-25T16:04:49;6.28;;;2.80;;
29430;SDS011;16404;49.902;10.074;2023-04-25T16:07:34;5.95;;;2.40;;
29430;SDS011;16404;49.902;10.074;2023-04-25T16:10:18;7.47;;;2.38;;
29430;SDS011;16404;49.902;10.074;2023-04-25T16:13:04;6.78;;;2.20;;
29430;SDS011;16404;49.902;10.074;2023-04-25T16:15:49;5.55;;;2.05;;
29430;SDS011;16404;49.902;10.074;2023-04-25T16:18:33;6.60;;;2.55;;
29430;SDS011;16404;49.902;10.074;2023-04-25T16:21:18;4.03;;;2.10;;
29430;SDS011;16404;49.902;10.074;2023-04-25T16:24:02;9.38;;;2.70;;
29430;SDS011;16404;49.902;10.074;2023-04-25T16:29:32;9.35;;;2.88;;
29430;SDS011;16404;49.902;10.074;2023-04-25T16:32:16;22.52;;;7.97;;
29430;SDS011;16404;49.902;10.074;2023-04-25T16:35:01;18.00;;;8.85;;
29430;SDS011;16404;49.902;10.074;2023-04-25T16:37:46;5.53;;;2.83;;
29430;SDS011;16404;49.902;10.074;2023-04-25T16:40:31;9.38;;;2.88;;
29430;SDS011;16404;49.902;10.074;2023-04-25T16:43:15;7.30;;;2.40;;
29430;SDS011;16404;49.902;10.074;2023-04-25T16:46:02;10.60;;;2.70;;
29430;SDS011;16404;49.902;10.074;2023-04-25T16:48:47;5.13;;;2.73;;
29430;SDS011;16404;49.902;10.074;2023-04-25T16:51:31;10.77;;;3.55;;
29430;SDS011;16404;49.902;10.074;2023-04-25T16:54:16;7.63;;;4.45;;
29430;SDS011;16404;49.902;10.074;2023-04-25T16:57:00;17.90;;;5.88;;
29430;SDS011;16404;49.902;10.074;2023-04-25T16:59:45;21.52;;;5.18;;
29430;SDS011;16404;49.902;10.074;2023-04-25T17:02:30;17.23;;;6.22;;
29430;SDS011;16404;49.902;10.074;2023-04-25T17:05:14;18.83;;;7.75;;
29430;SDS011;16404;49.902;10.074;2023-04-25T17:07:59;15.85;;;6.20;;
29430;SDS011;16404;49.902;10.074;2023-04-25T17:10:44;15.25;;;4.13;;
29430;SDS011;16404;49.902;10.074;2023-04-25T17:13:29;6.50;;;2.70;;
29430;SDS011;16404;49.902;10.074;2023-04-25T17:16:14;6.80;;;3.05;;
29430;SDS011;16404;49.902;10.074;2023-04-25T17:19:05;9.85;;;3.22;;
29430;SDS011;16404;49.902;10.074;2023-04-25T17:21:50;11.00;;;3.17;;
29430;SDS011;16404;49.902;10.074;2023-04-25T17:24:35;10.45;;;3.08;;
29430;SDS011;16404;49.902;10.074;2023-04-25T17:27:19;9.50;;;2.80;;
29430;SDS011;16404;49.902;10.074;2023-04-25T17:30:04;8.35;;;2.90;;
29430;SDS011;16404;49.902;10.074;2023-04-25T17:32:49;8.30;;;2.60;;
29430;SDS011;16404;49.902;10.074;2023-04-25T17:35:34;11.77;;;2.70;;
29430;SDS011;16404;49.902;10.074;2023-04-25T17:38:19;8.18;;;2.92;;
29430;SDS011;16404;49.902;10.074;2023-04-25T17:41:04;5.63;;;2.53;;
29430;SDS011;16404;49.902;10.074;2023-04-25T17:43:49;8.05;;;2.78;;
29430;SDS011;16404;49.902;10.074;2023-04-25T17:46:34;7.63;;;2.90;;
29430;SDS011;16404;49.902;10.074;2023-04-25T17:49:19;12.30;;;2.90;;
29430;SDS011;16404;49.902;10.074;2023-04-25T17:52:04;14.93;;;3.25;;
29430;SDS011;16404;49.902;10.074;2023-04-25T17:54:49;24.75;;;8.52;;
29430;SDS011;16404;49.902;10.074;2023-04-25T17:57:34;25.13;;;8.80;;
29430;SDS011;16404;49.902;10.074;2023-04-25T18:00:19;11.18;;;3.95;;
29430;SDS011;16404;49.902;10.074;2023-04-25T18:03:03;18.38;;;5.88;;
29430;SDS011;16404;49.902;10.074;2023-04-25T18:05:48;9.35;;;3.40;;
29430;SDS011;16404;49.902;10.074;2023-04-25T18:08:32;8.27;;;3.30;;
29430;SDS011;16404;49.902;10.074;2023-04-25T18:11:17;12.93;;;4.38;;
29430;SDS011;16404;49.902;10.074;2023-04-25T18:14:02;19.67;;;3.75;;
29430;SDS011;16404;49.902;10.074;2023-04-25T18:16:47;15.35;;;4.20;;
29430;SDS011;16404;49.902;10.074;2023-04-25T18:19:33;11.52;;;3.33;;
29430;SDS011;16404;49.902;10.074;2023-04-25T18:22:18;13.43;;;3.85;;
29430;SDS011;16404;49.902;10.074;2023-04-25T18:25:03;9.07;;;4.13;;
29430;SDS011;16404;49.902;10.074;2023-04-25T18:27:48;9.40;;;4.50;;
29430;SDS011;16404;49.902;10.074;2023-04-25T18:30:34;13.35;;;5.15;;
29430;SDS011;16404;49.902;10.074;2023-04-25T18:33:19;10.52;;;3.50;;
29430;SDS011;16404;49.902;10.074;2023-04-25T18:36:05;8.48;;;4.10;;
29430;SDS011;16404;49.902;10.074;2023-04-25T18:38:49;6.50;;;3.20;;
29430;SDS011;16404;49.902;10.074;2023-04-25T18:41:37;8.65;;;3.00;;
29430;SDS011;16404;49.902;10.074;2023-04-25T18:44:22;8.10;;;3.50;;
29430;SDS011;16404;49.902;10.074;2023-04-25T18:47:07;7.53;;;3.22;;
29430;SDS011;16404;49.902;10.074;2023-04-25T18:49:52;10.00;;;2.88;;
29430;SDS011;16404;49.902;10.074;2023-04-25T18:52:37;12.77;;;4.05;;
29430;SDS011;16404;49.902;10.074;2023-04-25T18:55:22;9.55;;;3.83;;
29430;SDS011;16404;49.902;10.074;2023-04-25T18:58:06;14.18;;;6.70;;
29430;SDS011;16404;49.902;10.074;2023-04-25T19:00:51;14.95;;;5.22;;
29430;SDS011;16404;49.902;10.074;2023-04-25T19:03:36;6.05;;;3.33;;
29430;SDS011;16404;49.902;10.074;2023-04-25T19:06:21;11.07;;;3.35;;
29430;SDS011;16404;49.902;10.074;2023-04-25T19:09:06;11.15;;;3.63;;
29430;SDS011;16404;49.902;10.074;2023-04-25T19:11:52;10.00;;;4.60;;
29430;SDS011;16404;49.902;10.074;2023-04-25T19:14:37;11.00;;;3.75;;
29430;SDS011;16404;49.902;10.074;2023-04-25T19:17:22;13.65;;;4.15;;
29430;SDS011;16404;49.902;10.074;2023-04-25T19:20:06;9.93;;;4.05;;
29430;SDS011;16404;49.902;10.074;2023-04-25T19:25:37;10.53;;;4.80;;
29430;SDS011;16404;49.902;10.074;2023-04-25T19:28:21;11.75;;;4.45;;
29430;SDS011;16404;49.902;10.074;2023-04-25T19:31:06;11.02;;;4.13;;
29430;SDS011;16404;49.902;10.074;2023-04-25T19:33:50;7.85;;;3.78;;
29430;SDS011;16404;49.902;10.074;2023-04-25T19:36:36;10.70;;;3.53;;
29430;SDS011;16404;49.902;10.074;2023-04-25T19:39:21;13.40;;;4.22;;
29430;SDS011;16404;49.902;10.074;2023-04-25T19:42:06;11.27;;;5.32;;
29430;SDS011;16404;49.902;10.074;2023-04-25T19:44:51;6.72;;;4.60;;
29430;SDS011;16404;49.902;10.074;2023-04-25T19:47:36;7.03;;;3.35;;
29430;SDS011;16404;49.902;10.074;2023-04-25T19:50:23;10.95;;;4.25;;
29430;SDS011;16404;49.902;10.074;2023-04-25T19:53:08;3.65;;;2.80;;
29430;SDS011;16404;49.902;10.074;2023-04-25T19:55:53;9.40;;;3.38;;
29430;SDS011;16404;49.902;10.074;2023-04-25T19:58:37;6.38;;;3.20;;
29430;SDS011;16404;49.902;10.074;2023-04-25T20:01:22;7.00;;;2.75;;
29430;SDS011;16404;49.902;10.074;2023-04-25T20:04:07;7.53;;;3.13;;
29430;SDS011;16404;49.902;10.074;2023-04-25T20:06:51;6.78;;;3.67;;
29430;SDS011;16404;49.902;10.074;2023-04-25T20:09:36;13.95;;;6.25;;
29430;SDS011;16404;49.902;10.074;2023-04-25T20:12:22;10.02;;;5.00;;
29430;SDS011;16404;49.902;10.074;2023-04-25T20:15:07;10.82;;;5.05;;
29430;SDS011;16404;49.902;10.074;2023-04-25T20:17:52;14.13;;;6.00;;
29430;SDS011;16404;49.902;10.074;2023-04-25T20:20:37;9.60;;;4.03;;
29430;SDS011;16404;49.902;10.074;2023-04-25T20:23:22;8.60;;;4.13;;
29430;SDS011;16404;49.902;10.074;2023-04-25T20:26:07;6.82;;;3.45;;
29430;SDS011;16404;49.902;10.074;2023-04-25T20:28:51;8.90;;;3.67;;
29430;SDS011;16404;49.902;10.074;2023-04-25T20:31:36;9.85;;;3.72;;
29430;SDS011;16404;49.902;10.074;2023-04-25T20:34:21;6.72;;;3.33;;
29430;SDS011;16404;49.902;10.074;2023-04-25T20:37:05;10.52;;;3.40;;
29430;SDS011;16404;49.902;10.074;2023-04-25T20:39:51;6.93;;;3.90;;
29430;SDS011;16404;49.902;10.074;2023-04-25T20:42:35;7.40;;;3.85;;
29430;SDS011;16404;49.902;10.074;2023-04-25T20:45:21;8.93;;;4.72;;
29430;SDS011;16404;49.902;10.074;2023-04-25T20:48:07;8.27;;;4.32;;
29430;SDS011;16404;49.902;10.074;2023-04-25T20:50:51;8.73;;;4.20;;
29430;SDS011;16404;49.902;10.074;2023-04-25T20:53:36;7.65;;;3.47;;
29430;SDS011;16404;49.902;10.074;2023-04-25T20:56:21;8.10;;;3.00;;
29430;SDS011;16404;49.902;10.074;2023-04-25T20:59:05;8.60;;;3.47;;
29430;SDS011;16404;49.902;10.074;2023-04-25T21:01:50;5.60;;;2.88;;
29430;SDS011;16404;49.902;10.074;2023-04-25T21:07:19;8.50;;;3.20;;
29430;SDS011;16404;49.902;10.074;2023-04-25T21:10:04;5.97;;;3.65;;
29430;SDS011;16404;49.902;10.074;2023-04-25T21:12:49;6.75;;;3.53;;
29430;SDS011;16404;49.902;10.074;2023-04-25T21:15:34;7.35;;;4.03;;
29430;SDS011;16404;49.902;10.074;2023-04-25T21:18:19;8.02;;;4.00;;
29430;SDS011;16404;49.902;10.074;2023-04-25T21:21:04;10.52;;;4.45;;
29430;SDS011;16404;49.902;10.074;2023-04-25T21:23:49;9.60;;;3.97;;
29430;SDS011;16404;49.902;10.074;2023-04-25T21:26:33;13.48;;;4.00;;
29430;SDS011;16404;49.902;10.074;2023-04-25T21:32:03;8.95;;;3.65;;
29430;SDS011;16404;49.902;10.074;2023-04-25T21:34:48;9.20;;;4.60;;
29430;SDS011;16404;49.902;10.074;2023-04-25T21:37:32;8.10;;;4.03;;
29430;SDS011;16404;49.902;10.074;2023-04-25T21:40:17;9.30;;;4.78;;
29430;SDS011;16404;49.902;10.074;2023-04-25T21:43:02;13.85;;;4.57;;
29430;SDS011;16404;49.902;10.074;2023-04-25T21:45:46;12.80;;;3.67;;
29430;SDS011;16404;49.902;10.074;2023-04-25T21:48:31;9.93;;;3.35;;
29430;SDS011;16404;49.902;10.074;2023-04-25T21:51:16;6.88;;;3.55;;
29430;SDS011;16404;49.902;10.074;2023-04-25T21:54:00;6.10;;;3.47;;
29430;SDS011;16404;49.902;10.074;2023-04-25T21:56:47;10.80;;;3.80;;
29430;SDS011;16404;49.902;10.074;2023-04-25T21:59:32;11.77;;;4.28;;
29430;SDS011;16404;49.902;10.074;2023-04-25T22:02:18;10.60;;;3.85;;
29430;SDS011;16404;49.902;10.074;2023-04-25T22:05:03;10.75;;;4.60;;
29430;SDS011;16404;49.902;10.074;2023-04-25T22:07:48;10.60;;;4.13;;
29430;SDS011;16404;49.902;10.074;2023-04-25T22:10:34;9.13;;;3.72;;
29430;SDS011;16404;49.902;10.074;2023-04-25T22:13:18;8.80;;;4.28;;
29430;SDS011;16404;49.902;10.074;2023-04-25T22:16:03;10.10;;;4.32;;
29430;SDS011;16404;49.902;10.074;2023-04-25T22:18:47;13.18;;;4.35;;
29430;SDS011;16404;49.902;10.074;2023-04-25T22:21:32;6.43;;;3.97;;
29430;SDS011;16404;49.902;10.074;2023-04-25T22:24:16;11.13;;;4.20;;
29430;SDS011;16404;49.902;10.074;2023-04-25T22:27:01;7.32;;;4.50;;
29430;SDS011;16404;49.902;10.074;2023-04-25T22:29:46;11.43;;;3.88;;
29430;SDS011;16404;49.902;10.074;2023-04-25T22:32:30;10.70;;;4.10;;
29430;SDS011;16404;49.902;10.074;2023-04-25T22:35:15;6.75;;;3.65;;
29430;SDS011;16404;49.902;10.074;2023-04-25T22:38:00;6.68;;;3.33;;
29430;SDS011;16404;49.902;10.074;2023-04-25T22:40:45;6.00;;;3.38;;
29430;SDS011;16404;49.902;10.074;2023-04-25T22:43:30;7.28;;;3.08;;
29430;SDS011;16404;49.902;10.074;2023-04-25T22:46:18;13.23;;;3.35;;
29430;SDS011;16404;49.902;10.074;2023-04-25T22:49:04;7.30;;;3.05;;
29430;SDS011;16404;49.902;10.074;2023-04-25T22:51:48;9.85;;;3.58;;
29430;SDS011;16404;49.902;10.074;2023-04-25T22:54:37;6.82;;;3.10;;
29430;SDS011;16404;49.902;10.074;2023-04-25T22:57:22;9.55;;;3.53;;
29430;SDS011;16404;49.902;10.074;2023-04-25T23:00:07;8.93;;;2.90;;
29430;SDS011;16404;49.902;10.074;2023-04-25T23:02:59;10.00;;;3.67;;
29430;SDS011;16404;49.902;10.074;2023-04-25T23:05:46;8.38;;;3.60;;
29430;SDS011;16404;49.902;10.074;2023-04-25T23:08:30;9.20;;;3.65;;
29430;SDS011;16404;49.902;10.074;2023-04-25T23:11:15;4.88;;;2.78;;
29430;SDS011;16404;49.902;10.074;2023-04-25T23:14:00;9.93;;;3.80;;
29430;SDS011;16404;49.902;10.074;2023-04-25T23:16:46;6.95;;;3.15;;
29430;SDS011;16404;49.902;10.074;2023-04-25T23:19:31;10.43;;;3.00;;
29430;SDS011;16404;49.902;10.074;2023-04-25T23:22:16;8.43;;;2.92;;
29430;SDS011;16404;49.902;10.074;2023-04-25T23:25:01;8.73;;;3.13;;
29430;SDS011;16404;49.902;10.074;2023-04-25T23:27:46;9.52;;;3.45;;
29430;SDS011;16404;49.902;10.074;2023-04-25T23:30:31;10.75;;;3.45;;
29430;SDS011;16404;49.902;10.074;2023-04-25T23:33:16;7.07;;;2.78;;
29430;SDS011;16404;49.902;10.074;2023-04-25T23:36:00;3.75;;;2.40;;
29430;SDS011;16404;49.902;10.074;2023-04-25T23:38:45;6.43;;;3.00;;
29430;SDS011;16404;49.902;10.074;2023-04-25T23:41:30;7.65;;;3.22;;
29430;SDS011;16404;49.902;10.074;2023-04-25T23:44:15;10.30;;;3.20;;
29430;SDS011;16404;49.902;10.074;2023-04-25T23:46:59;6.95;;;2.90;;
29430;SDS011;16404;49.902;10.074;2023-04-25T23:49:44;8.77;;;3.58;;
29430;SDS011;16404;49.902;10.074;2023-04-25T23:52:29;5.88;;;2.90;;
29430;SDS011;16404;49.902;10.074;2023-04-25T23:55:13;7.07;;;2.97;;
29430;SDS011;16404;49.902;10.074;2023-04-25T23:57:58;7.50;;;2.90;;
